Abadi — V8V2002 — position and weather

sailwx.info

Track history (hours):
 
Tides and Currents Weather Stations Pressure Air Temp Water Temp Dewpoint Dewpoint Depression Visibility Wind Speed Wind Dir Waves Ship Positions

Abadi

Last reported at 2015-Jun-18 15:33 UTC. Time now 2015-Jul-03 07:56 UTC.
Position N 34°33' E 139°36'.
Warning: this ship's position is 14 days out of date.

Type: Ship (hazmat cat A). MMSI: 508011000.

Date/timePositionNaut miles runAvg speedWind from/ knotsBaromVisibWave heightAir tempDewpointWater temp
2015-Jun-18 15:33N 34°33' E 139°36'1714.4
2015-Jun-18 14:22N 34°50' E 139°37'1214.7
2015-Jun-18 13:33N 35°02' E 139°40'1212.1
2015-Jun-18 12:33N 35°13' E 139°46'1211.8
2015-Jun-18 11:33N 35°24' E 139°43'1212.2
2015-Jun-18 10:33N 35°30' E 139°56'2 1.6
2015-Jun-18 09:22N 35°28' E 139°58'0 0.0
2015-Jun-18 08:33N 35°28' E 139°58'0 0.0
2015-Jun-18 07:33N 35°28' E 139°58'0 0.0
2015-Jun-18 06:26N 35°28' E 139°58'0 0.0
2015-Jun-18 05:32N 35°28' E 139°58'0 0.0
2015-Jun-18 04:32N 35°28' E 139°58'0 0.0
2015-Jun-18 03:31N 35°28' E 139°58'0 0.0
2015-Jun-18 02:31N 35°28' E 139°58'0 0.0
2015-Jun-18 01:33N 35°28' E 139°58'0 0.0
2015-Jun-18 00:30N 35°28' E 139°58'0 0.0
2015-Jun-17 23:23N 35°28' E 139°58'0 0.0
2015-Jun-17 22:33N 35°28' E 139°58'0 0.0
2015-Jun-17 21:28N 35°28' E 139°58'0 0.0
2015-Jun-17 20:28N 35°28' E 139°58'0 0.0
2015-Jun-17 19:33N 35°28' E 139°58'0 0.0
2015-Jun-17 18:33N 35°28' E 139°58'0 0.0
2015-Jun-17 17:32N 35°28' E 139°58'0 0.0
2015-Jun-17 16:32N 35°28' E 139°58'0 0.0
2015-Jun-17 15:31N 35°28' E 139°58'0 0.0
2015-Jun-17 14:31N 35°28' E 139°58'0 0.0
2015-Jun-17 13:31N 35°28' E 139°58'0 0.0
2015-Jun-17 12:30N 35°28' E 139°58'0 0.0
2015-Jun-17 11:30N 35°28' E 139°58'0 0.0
2015-Jun-17 10:32N 35°28' E 139°58'0 0.0
2015-Jun-17 09:24N 35°28' E 139°58'0 0.0
2015-Jun-17 08:33N 35°28' E 139°58'0 0.0
2015-Jun-17 07:29N 35°28' E 139°58'0 0.0
2015-Jun-17 06:29N 35°28' E 139°58'0 0.0
2015-Jun-17 05:33N 35°28' E 139°58'3 2.8
2015-Jun-17 04:33N 35°30' E 139°55'1010.0
2015-Jun-17 03:34N 35°23' E 139°46'1211.5
2015-Jun-17 02:34N 35°11' E 139°47'8 7.9
2015-Jun-17 01:34N 35°04' E 139°44'8 8.5
2015-Jun-17 00:34N 34°56' E 139°42'2210.3
2015-Jun-16 22:26N 34°34' E 139°38'7 7.0
2015-Jun-16 21:21N 34°28' E 139°33'  
Track history (hours):
 
Tides and Currents Weather Stations Pressure Air Temp Water Temp Dewpoint Dewpoint Depression Visibility Wind Speed Wind Dir Waves Ship Positions

Abadi

Last reported at 2015-Jun-18 15:33 UTC. Time now 2015-Jul-03 07:56 UTC.
Position N 34°33' E 139°36'.
Warning: this ship's position is 14 days out of date.

Type: Ship (hazmat cat A). MMSI: 508011000.

Date/timePositionNaut miles runAvg speedWind from/ knotsBaromVisibWave heightAir tempDewpointWater temp
2015-Jun-18 15:33N 34°33' E 139°36'1714.4
2015-Jun-18 14:22N 34°50' E 139°37'1214.7
2015-Jun-18 13:33N 35°02' E 139°40'1212.1
2015-Jun-18 12:33N 35°13' E 139°46'1211.8
2015-Jun-18 11:33N 35°24' E 139°43'1212.2
2015-Jun-18 10:33N 35°30' E 139°56'2 1.6
2015-Jun-18 09:22N 35°28' E 139°58'0 0.0
2015-Jun-18 08:33N 35°28' E 139°58'0 0.0
2015-Jun-18 07:33N 35°28' E 139°58'0 0.0
2015-Jun-18 06:26N 35°28' E 139°58'0 0.0
2015-Jun-18 05:32N 35°28' E 139°58'0 0.0
2015-Jun-18 04:32N 35°28' E 139°58'0 0.0
2015-Jun-18 03:31N 35°28' E 139°58'0 0.0
2015-Jun-18 02:31N 35°28' E 139°58'0 0.0
2015-Jun-18 01:33N 35°28' E 139°58'0 0.0
2015-Jun-18 00:30N 35°28' E 139°58'0 0.0
2015-Jun-17 23:23N 35°28' E 139°58'0 0.0
2015-Jun-17 22:33N 35°28' E 139°58'0 0.0
2015-Jun-17 21:28N 35°28' E 139°58'0 0.0
2015-Jun-17 20:28N 35°28' E 139°58'0 0.0
2015-Jun-17 19:33N 35°28' E 139°58'0 0.0
2015-Jun-17 18:33N 35°28' E 139°58'0 0.0
2015-Jun-17 17:32N 35°28' E 139°58'0 0.0
2015-Jun-17 16:32N 35°28' E 139°58'0 0.0
2015-Jun-17 15:31N 35°28' E 139°58'0 0.0
2015-Jun-17 14:31N 35°28' E 139°58'0 0.0
2015-Jun-17 13:31N 35°28' E 139°58'0 0.0
2015-Jun-17 12:30N 35°28' E 139°58'0 0.0
2015-Jun-17 11:30N 35°28' E 139°58'0 0.0
2015-Jun-17 10:32N 35°28' E 139°58'0 0.0
2015-Jun-17 09:24N 35°28' E 139°58'0 0.0
2015-Jun-17 08:33N 35°28' E 139°58'0 0.0
2015-Jun-17 07:29N 35°28' E 139°58'0 0.0
2015-Jun-17 06:29N 35°28' E 139°58'0 0.0
2015-Jun-17 05:33N 35°28' E 139°58'3 2.8
2015-Jun-17 04:33N 35°30' E 139°55'1010.0
2015-Jun-17 03:34N 35°23' E 139°46'1211.5
2015-Jun-17 02:34N 35°11' E 139°47'8 7.9
2015-Jun-17 01:34N 35°04' E 139°44'8 8.5
2015-Jun-17 00:34N 34°56' E 139°42'2210.3
2015-Jun-16 22:26N 34°34' E 139°38'7 7.0
2015-Jun-16 21:21N 34°28' E 139°33'  

Dump ship's entire track history